createdAt,value
2019-01-02T00:00:50.140Z,102681.91
2019-01-02T00:03:20.841Z,102688.86
2019-01-02T00:05:51.005Z,102689.77
2019-01-02T00:08:21.412Z,102689.31
2019-01-02T00:10:51.310Z,102691.07
2019-01-02T00:13:21.522Z,102691.07
2019-01-02T00:15:51.507Z,102703.30
2019-01-02T00:18:21.561Z,102700.20
2019-01-02T00:20:51.377Z,102702.33
2019-01-02T00:23:21.810Z,102699.26
2019-01-02T00:25:51.872Z,102695.00
2019-01-02T00:28:23.231Z,102697.62
2019-01-02T00:30:53.576Z,102698.03
2019-01-02T00:33:23.561Z,102704.13
2019-01-02T00:35:54.819Z,102702.36
2019-01-02T00:38:24.755Z,102707.97
2019-01-02T00:40:55.534Z,102691.81
2019-01-02T00:43:25.874Z,102706.66
2019-01-02T00:45:56.025Z,102704.03
2019-01-02T00:48:25.886Z,102701.42
2019-01-02T00:50:56.209Z,102701.37
2019-01-02T00:53:26.172Z,102704.77
2019-01-02T00:55:56.476Z,102702.65
2019-01-02T00:58:27.495Z,102700.92
2019-01-02T01:00:57.850Z,102703.59
2019-01-02T01:03:27.799Z,102718.40
2019-01-02T01:05:58.252Z,102715.78
2019-01-02T01:08:28.207Z,102717.50
2019-01-02T01:10:58.449Z,102720.94
2019-01-02T01:13:28.353Z,102706.95
2019-01-02T01:15:58.766Z,102713.08
2019-01-02T01:18:30.181Z,102716.56
2019-01-02T01:21:03.564Z,102717.87
2019-01-02T01:23:33.438Z,102723.11
2019-01-02T01:26:04.061Z,102723.15
2019-01-02T01:28:34.490Z,102729.25
2019-01-02T01:31:04.582Z,102738.45
2019-01-02T01:33:34.480Z,102740.13
2019-01-02T01:36:04.474Z,102743.66
2019-01-02T01:38:35.270Z,102744.55
2019-01-02T01:41:05.522Z,102752.41
2019-01-02T01:43:35.579Z,102752.41
2019-01-02T01:46:05.544Z,102751.09
2019-01-02T01:48:35.818Z,102744.55
2019-01-02T01:51:05.764Z,102749.71
2019-01-02T01:53:35.723Z,102759.25
2019-01-02T01:56:06.267Z,102755.40
2019-01-02T01:58:36.140Z,102756.78
2019-01-02T02:01:06.437Z,102751.95
2019-01-02T02:03:36.557Z,102748.07
2019-01-02T02:06:07.492Z,102755.44
2019-01-02T02:08:37.737Z,102756.34
2019-01-02T02:11:07.666Z,102762.47
2019-01-02T02:13:38.020Z,102758.59
2019-01-02T02:16:08.355Z,102765.22
2019-01-02T02:18:38.321Z,102764.80
2019-01-02T02:21:09.665Z,102776.17
2019-01-02T02:23:40.259Z,102777.00
2019-01-02T02:26:10.216Z,102779.17
2019-01-02T02:28:40.467Z,102772.66
2019-01-02T02:31:10.595Z,102776.14
2019-01-02T02:33:40.845Z,102776.10
2019-01-02T02:36:11.164Z,102781.34
2019-01-02T02:38:41.382Z,102787.47
2019-01-02T02:41:11.897Z,102785.27
2019-01-02T02:43:42.110Z,102779.58
2019-01-02T02:46:12.036Z,102780.48
2019-01-02T02:48:41.994Z,102780.92
2019-01-02T02:51:12.221Z,102776.10
2019-01-02T02:53:42.698Z,102783.47
2019-01-02T02:56:14.247Z,102774.30
2019-01-02T02:58:44.866Z,102783.05
2019-01-02T03:01:15.549Z,102770.37
2019-01-02T03:03:45.695Z,102767.34
2019-01-02T03:06:15.837Z,102768.28
2019-01-02T03:08:45.781Z,102775.31
2019-01-02T03:11:15.759Z,102778.08
2019-01-02T03:13:46.059Z,102765.41
2019-01-02T03:16:16.290Z,102761.55
2019-01-02T03:18:46.622Z,102765.10
2019-01-02T03:21:16.907Z,102765.52
2019-01-02T03:23:46.850Z,102772.47
2019-01-02T03:26:16.786Z,102773.78
2019-01-02T03:28:46.707Z,102779.91
2019-01-02T03:31:16.963Z,102773.81
2019-01-02T03:33:47.157Z,102779.88
2019-01-02T03:36:17.109Z,102774.64
2019-01-02T03:38:47.075Z,102786.84
2019-01-02T03:41:17.380Z,102776.77
2019-01-02T03:43:47.340Z,102785.53
2019-01-02T03:46:17.282Z,102785.53
2019-01-02T03:48:47.226Z,102780.37
2019-01-02T03:51:17.584Z,102789.53
2019-01-02T03:53:47.694Z,102774.72
2019-01-02T03:56:17.936Z,102765.06
2019-01-02T03:58:47.817Z,102765.89
2019-01-02T04:01:17.772Z,102781.19
2019-01-02T04:03:47.729Z,102779.43
2019-01-02T04:06:18.056Z,102772.02
2019-01-02T04:08:48.017Z,102783.32
2019-01-02T04:11:18.011Z,102778.56
2019-01-02T04:13:47.880Z,102784.22
2019-01-02T04:16:17.862Z,102785.04
2019-01-02T04:18:49.190Z,102785.45
2019-01-02T04:21:19.482Z,102796.72
2019-01-02T04:23:49.765Z,102784.03
2019-01-02T04:26:19.747Z,102777.94
2019-01-02T04:28:49.972Z,102786.66
2019-01-02T04:33:48.240Z,102777.67
2019-01-02T04:36:18.021Z,102766.30
2019-01-02T04:38:48.217Z,102774.56
2019-01-02T04:41:18.461Z,102780.52
2019-01-02T04:43:48.312Z,102797.98
2019-01-02T04:46:18.178Z,102795.86
2019-01-02T04:48:48.046Z,102796.41
2019-01-02T04:51:17.918Z,102791.21
2019-01-02T04:53:47.863Z,102793.01
2019-01-02T04:56:17.810Z,102790.02
2019-01-02T04:58:47.670Z,102797.19
2019-01-02T05:01:17.841Z,102789.34
2019-01-02T05:03:47.692Z,102796.33
2019-01-02T05:06:17.915Z,102797.98
2019-01-02T05:08:47.770Z,102793.56
2019-01-02T05:11:17.636Z,102786.16
2019-01-02T05:13:47.764Z,102793.56
2019-01-02T05:16:17.690Z,102794.09
2019-01-02T05:18:47.551Z,102801.05
2019-01-02T05:21:17.528Z,102803.18
2019-01-02T05:23:47.480Z,102805.80
2019-01-02T05:26:17.247Z,102801.02
2019-01-02T05:28:47.175Z,102812.34
2019-01-02T05:31:17.104Z,102810.14
2019-01-02T05:33:47.063Z,102819.27
2019-01-02T05:36:17.009Z,102812.38
2019-01-02T05:38:47.296Z,102826.25
2019-01-02T05:41:17.153Z,102822.78
2019-01-02T05:43:47.343Z,102827.16
2019-01-02T05:46:17.178Z,102824.09
2019-01-02T05:48:47.053Z,102827.16
2019-01-02T05:51:16.913Z,102828.09
2019-01-02T05:53:46.780Z,102831.67
2019-01-02T05:56:16.899Z,102819.92
2019-01-02T05:58:46.746Z,102823.47
2019-01-02T06:01:16.599Z,102829.27
2019-01-02T06:03:46.638Z,102829.27
2019-01-02T06:06:16.668Z,102835.80
2019-01-02T06:08:46.611Z,102840.63
2019-01-02T06:11:16.550Z,102834.57
2019-01-02T06:13:46.422Z,102838.08
2019-01-02T06:16:16.669Z,102846.34
2019-01-02T06:18:46.845Z,102846.73
2019-01-02T06:21:16.732Z,102852.41
2019-01-02T06:23:46.949Z,102848.89
2019-01-02T06:26:16.787Z,102847.17
2019-01-02T06:28:46.718Z,102850.20
2019-01-02T06:31:16.665Z,102858.50
2019-01-02T06:33:46.524Z,102853.23
2019-01-02T06:36:17.943Z,102855.89
2019-01-02T06:38:48.166Z,102850.66
2019-01-02T06:41:18.097Z,102853.68
2019-01-02T06:43:48.150Z,102857.20
2019-01-02T06:46:20.110Z,102861.16
2019-01-02T06:48:50.658Z,102856.41
2019-01-02T06:51:20.573Z,102865.22
2019-01-02T06:53:50.872Z,102863.91
2019-01-02T06:56:21.090Z,102873.10
2019-01-02T06:58:50.956Z,102873.10
2019-01-02T07:01:21.114Z,102862.59
2019-01-02T07:03:51.474Z,102876.48
2019-01-02T07:06:21.483Z,102878.20
2019-01-02T07:08:51.882Z,102883.85
2019-01-02T07:11:22.024Z,102890.78
2019-01-02T07:13:51.968Z,102890.30
2019-01-02T07:16:21.843Z,102895.47
2019-01-02T07:18:52.065Z,102889.81
2019-01-02T07:21:21.921Z,102892.44
2019-01-02T07:23:52.191Z,102905.94
2019-01-02T07:26:22.420Z,102905.94
2019-01-02T07:28:52.320Z,102909.34
2019-01-02T07:31:23.248Z,102910.59
2019-01-02T07:34:05.822Z,102914.14
2019-01-02T07:37:06.064Z,102922.78
2019-01-02T07:40:02.541Z,102927.09
2019-01-02T07:42:57.454Z,102935.33
2019-01-02T07:46:23.525Z,102927.44
2019-01-02T07:49:40.094Z,102933.57
2019-01-02T07:53:09.656Z,102944.14
2019-01-02T07:56:19.126Z,102941.66
2019-01-02T07:59:09.876Z,102951.27
2019-01-02T08:01:55.637Z,102957.81
2019-01-02T08:04:58.102Z,102957.27
2019-01-02T08:07:56.741Z,102964.61
2019-01-02T08:11:20.072Z,102955.45
2019-01-02T08:14:20.993Z,102964.61
2019-01-02T08:17:19.162Z,102971.92
2019-01-02T08:20:06.427Z,102969.84
2019-01-02T08:23:18.525Z,102966.40
2019-01-02T08:26:44.878Z,102976.42
2019-01-02T08:29:54.830Z,102968.13
2019-01-02T08:32:56.358Z,102971.50
2019-01-02T08:35:52.495Z,102973.23
2019-01-02T08:39:02.446Z,102972.78
2019-01-02T08:42:05.211Z,102964.89
2019-01-02T08:45:34.336Z,102958.66
2019-01-02T08:48:54.535Z,102964.73
2019-01-02T08:51:57.192Z,102976.52
2019-01-02T08:55:00.447Z,102970.38
2019-01-02T08:58:11.403Z,102985.61
2019-01-02T09:01:31.511Z,102978.17
2019-01-02T09:04:29.841Z,102988.12
2019-01-02T09:07:30.615Z,103003.23
2019-01-02T09:11:00.287Z,103006.23
2019-01-02T09:14:04.922Z,103010.58
2019-01-02T09:17:27.853Z,103001.44
2019-01-02T09:20:34.603Z,103008.37
2019-01-02T09:23:41.549Z,103022.75
2019-01-02T09:27:06.955Z,103021.02
2019-01-02T09:30:14.454Z,103021.05
2019-01-02T09:33:15.517Z,103027.19
2019-01-02T09:36:04.960Z,103035.02
2019-01-02T09:39:34.165Z,103027.67
2019-01-02T09:42:46.887Z,103025.02
2019-01-02T09:45:53.835Z,103025.37
2019-01-02T09:48:49.616Z,103026.70
2019-01-02T09:52:12.765Z,103036.29
2019-01-02T09:55:18.103Z,103031.88
2019-01-02T09:58:47.132Z,103031.37
2019-01-02T10:02:03.069Z,103036.64
2019-01-02T10:05:23.191Z,103045.84
2019-01-02T10:08:28.522Z,103043.09
2019-01-02T10:11:41.467Z,103038.06
2019-01-02T10:14:55.169Z,103037.00
2019-01-02T10:18:06.888Z,103035.06
2019-01-02T10:21:13.762Z,103038.81
2019-01-02T10:24:13.497Z,103042.36
2019-01-02T10:27:21.893Z,103035.02
2019-01-02T10:30:20.817Z,103034.43
2019-01-02T10:33:01.248Z,103023.78
2019-01-02T10:35:55.958Z,103023.59
2019-01-02T10:39:02.905Z,103027.41
2019-01-02T10:42:22.967Z,103030.33
2019-01-02T10:45:28.379Z,103037.45
2019-01-02T10:48:28.836Z,103037.52
2019-01-02T10:51:32.603Z,103037.34
2019-01-02T10:54:28.592Z,103040.49
2019-01-02T10:57:22.005Z,103035.28
2019-01-02T11:00:28.297Z,103045.66
2019-01-02T11:03:16.122Z,103036.41
2019-01-02T11:06:27.702Z,103037.30
2019-01-02T11:09:16.437Z,103038.36
2019-01-02T11:12:21.972Z,103036.72
2019-01-02T11:15:49.914Z,103034.13
2019-01-02T11:19:02.739Z,103048.11
2019-01-02T11:22:20.725Z,103048.97
2019-01-02T11:25:37.125Z,103051.48
2019-01-02T11:28:46.570Z,103037.79
2019-01-02T11:31:42.591Z,103040.75
2019-01-02T11:34:43.663Z,103038.50
2019-01-02T11:37:44.794Z,103033.59
2019-01-02T11:41:10.854Z,103042.57
2019-01-02T11:44:39.833Z,103036.67
2019-01-02T11:47:09.713Z,103035.41
2019-01-02T11:49:39.587Z,103038.41
2019-01-02T11:52:09.472Z,103034.84
2019-01-02T11:54:39.565Z,103038.23
2019-01-02T11:57:09.637Z,103033.76
2019-01-02T11:59:39.584Z,103034.21
2019-01-02T12:02:09.480Z,103034.95
2019-01-02T12:04:40.356Z,103033.02
2019-01-02T12:07:10.276Z,103029.07
2019-01-02T12:09:41.047Z,103032.47
2019-01-02T12:12:11.942Z,103032.56
2019-01-02T12:14:41.804Z,103030.25
2019-01-02T12:17:11.675Z,103036.66
2019-01-02T12:19:42.198Z,103030.21
2019-01-02T12:22:13.093Z,103027.67
2019-01-02T12:24:42.950Z,103025.86
2019-01-02T12:27:13.116Z,103025.24
2019-01-02T12:29:42.978Z,103022.84
2019-01-02T12:32:12.827Z,103024.42
2019-01-02T12:34:42.690Z,103023.03
2019-01-02T12:37:12.636Z,103024.06
2019-01-02T12:39:42.525Z,103028.50
2019-01-02T12:42:12.747Z,103028.55
2019-01-02T12:44:42.559Z,103031.81
2019-01-02T12:47:12.527Z,103027.80
2019-01-02T12:49:42.620Z,103030.68
2019-01-02T12:52:13.039Z,103033.14
2019-01-02T12:54:42.935Z,103034.75
2019-01-02T12:57:13.861Z,103032.50
2019-01-02T12:59:43.839Z,103036.17
2019-01-02T13:02:43.792Z,103035.47
2019-01-02T13:05:50.204Z,103026.40
2019-01-02T13:08:59.769Z,103034.56
2019-01-02T13:12:10.019Z,103042.28
2019-01-02T13:15:15.560Z,103041.52
2019-01-02T13:18:10.129Z,103044.66
2019-01-02T13:21:10.911Z,103046.30
2019-01-02T13:23:50.406Z,103048.17
2019-01-02T13:26:48.183Z,103055.17
2019-01-02T13:29:53.623Z,103058.03
2019-01-02T13:32:38.407Z,103050.22
2019-01-02T13:35:48.196Z,103049.05
2019-01-02T13:38:54.877Z,103051.26
2019-01-02T13:41:59.180Z,103053.47
2019-01-02T13:45:10.130Z,103052.33
2019-01-02T13:48:04.002Z,103056.22
2019-01-02T13:50:53.599Z,103055.77
2019-01-02T13:53:23.462Z,103065.34
2019-01-02T13:55:53.429Z,103068.64
2019-01-02T13:58:23.605Z,103071.03
2019-01-02T14:00:53.542Z,103071.20
2019-01-02T14:03:23.443Z,103072.92
2019-01-02T14:05:53.647Z,103077.83
2019-01-02T14:08:23.573Z,103083.09
2019-01-02T14:10:54.246Z,103087.50
2019-01-02T14:13:24.019Z,103081.27
2019-01-02T14:15:53.859Z,103086.80
2019-01-02T14:18:23.761Z,103092.47
2019-01-02T14:20:53.648Z,103093.47
2019-01-02T14:23:24.089Z,103104.06
2019-01-02T14:25:55.241Z,103106.80
2019-01-02T14:28:25.203Z,103113.82
2019-01-02T14:30:55.371Z,103103.86
2019-01-02T14:33:25.627Z,103112.55
2019-01-02T14:35:55.499Z,103106.34
2019-01-02T14:38:25.467Z,103115.55
2019-01-02T14:40:55.346Z,103123.84
2019-01-02T14:43:25.646Z,103124.90
2019-01-02T14:45:55.771Z,103127.33
2019-01-02T14:48:26.107Z,103131.92
2019-01-02T14:50:55.995Z,103129.96
2019-01-02T14:53:26.226Z,103131.56
2019-01-02T14:55:56.166Z,103135.55
2019-01-02T14:58:26.325Z,103137.12
2019-01-02T15:00:56.265Z,103138.45
2019-01-02T15:03:26.466Z,103143.30
2019-01-02T15:05:56.632Z,103138.91
2019-01-02T15:08:26.733Z,103139.04
2019-01-02T15:10:56.981Z,103140.48
2019-01-02T15:13:26.751Z,103138.98
2019-01-02T15:15:56.589Z,103140.13
2019-01-02T15:18:26.752Z,103141.58
2019-01-02T15:20:56.889Z,103143.14
2019-01-02T15:23:26.659Z,103144.20
2019-01-02T15:25:56.597Z,103150.61
2019-01-02T15:28:26.427Z,103149.58
2019-01-02T15:30:56.478Z,103152.89
2019-01-02T15:33:26.330Z,103150.17
2019-01-02T15:35:56.277Z,103150.29
2019-01-02T15:38:26.267Z,103160.00
2019-01-02T15:40:56.430Z,103159.22
2019-01-02T15:43:26.286Z,103163.20
2019-01-02T15:45:56.467Z,103162.44
2019-01-02T15:48:26.808Z,103165.63
2019-01-02T15:50:56.670Z,103166.61
2019-01-02T15:53:27.182Z,103177.19
2019-01-02T15:55:57.097Z,103168.59
2019-01-02T15:58:27.278Z,103176.53
2019-01-02T16:00:57.200Z,103181.89
2019-01-02T16:03:27.063Z,103189.48
2019-01-02T16:05:56.910Z,103196.23
2019-01-02T16:08:26.838Z,103202.09
2019-01-02T16:10:56.751Z,103203.95
2019-01-02T16:13:27.658Z,103205.40
2019-01-02T16:15:57.490Z,103209.95
2019-01-02T16:18:27.426Z,103217.05
2019-01-02T16:20:57.529Z,103220.19
2019-01-02T16:23:27.398Z,103218.97
2019-01-02T16:25:57.176Z,103215.16
2019-01-02T16:28:27.042Z,103213.53
2019-01-02T16:30:56.982Z,103218.45
2019-01-02T16:33:26.922Z,103226.34
2019-01-02T16:35:56.707Z,103224.27
2019-01-02T16:38:26.592Z,103228.67
2019-01-02T16:40:56.542Z,103234.39
2019-01-02T16:43:26.465Z,103233.66
2019-01-02T16:45:56.420Z,103235.91
2019-01-02T16:48:26.343Z,103236.42
2019-01-02T16:50:56.305Z,103236.09
2019-01-02T16:53:26.447Z,103239.60
2019-01-02T16:55:56.849Z,103240.53
2019-01-02T16:58:26.963Z,103248.86
2019-01-02T17:00:57.589Z,103243.65
2019-01-02T17:03:28.125Z,103249.81
2019-01-02T17:05:58.073Z,103243.70
2019-01-02T17:08:28.960Z,103244.63
2019-01-02T17:10:59.613Z,103242.95
2019-01-02T17:13:29.465Z,103242.15
2019-01-02T17:16:00.314Z,103245.71
2019-01-02T17:18:30.098Z,103246.60
2019-01-02T17:20:59.964Z,103245.73
2019-01-02T17:23:29.884Z,103250.16
2019-01-02T17:25:59.820Z,103247.15
2019-01-02T17:28:29.741Z,103247.70
2019-01-02T17:31:00.262Z,103248.17
2019-01-02T17:33:30.130Z,103250.41
2019-01-02T17:35:59.917Z,103251.31
2019-01-02T17:38:30.202Z,103253.56
2019-01-02T17:41:00.432Z,103251.45
2019-01-02T17:43:30.278Z,103260.25
2019-01-02T17:46:00.269Z,103268.15
2019-01-02T17:48:30.138Z,103266.00
2019-01-02T17:51:00.066Z,103272.98
2019-01-02T17:53:30.303Z,103272.08
2019-01-02T17:56:00.929Z,103276.00
2019-01-02T17:58:31.129Z,103279.09
2019-01-02T18:01:01.010Z,103272.59
2019-01-02T18:03:30.977Z,103270.50
2019-01-02T18:06:03.266Z,103274.03
2019-01-02T18:08:33.185Z,103278.00
2019-01-02T18:11:03.508Z,103285.88
2019-01-02T18:13:33.441Z,103287.25
2019-01-02T18:16:03.658Z,103295.18
2019-01-02T18:18:33.595Z,103289.10
2019-01-02T18:21:03.419Z,103292.19
2019-01-02T18:23:33.522Z,103292.66
2019-01-02T18:26:05.215Z,103299.64
2019-01-02T18:28:35.147Z,103299.22
2019-01-02T18:31:05.269Z,103304.89
2019-01-02T18:33:35.207Z,103302.73
2019-01-02T18:36:05.161Z,103305.80
2019-01-02T18:38:35.224Z,103299.33
2019-01-02T18:41:06.959Z,103302.44
2019-01-02T18:43:36.928Z,103303.80
2019-01-02T18:46:07.108Z,103302.96
2019-01-02T18:48:41.882Z,103302.11
2019-01-02T18:51:12.259Z,103301.32
2019-01-02T18:53:43.173Z,103310.94
2019-01-02T18:56:13.090Z,103309.67
2019-01-02T18:58:43.336Z,103310.59
2019-01-02T19:01:13.522Z,103316.71
2019-01-02T19:03:43.314Z,103314.06
2019-01-02T19:06:13.081Z,103317.09
2019-01-02T19:08:43.199Z,103316.17
2019-01-02T19:11:13.046Z,103320.94
2019-01-02T19:13:42.925Z,103323.04
2019-01-02T19:16:12.807Z,103324.80
2019-01-02T19:18:42.635Z,103329.25
2019-01-02T19:21:12.429Z,103331.02
2019-01-02T19:23:42.665Z,103333.67
2019-01-02T19:26:12.619Z,103333.75
2019-01-02T19:28:42.618Z,103331.68
2019-01-02T19:31:12.587Z,103332.17
2019-01-02T19:33:42.592Z,103341.80
2019-01-02T19:36:12.394Z,103337.13
2019-01-02T19:38:42.324Z,103341.09
2019-01-02T19:41:12.586Z,103340.68
2019-01-02T19:43:42.519Z,103350.28
2019-01-02T19:46:12.385Z,103351.25
2019-01-02T19:48:42.156Z,103355.22
2019-01-02T19:51:11.971Z,103353.09
2019-01-02T19:53:41.744Z,103343.92
2019-01-02T19:56:12.018Z,103347.38
2019-01-02T19:58:42.201Z,103349.95
2019-01-02T20:01:12.062Z,103353.44
2019-01-02T20:03:41.987Z,103350.80
2019-01-02T20:06:11.864Z,103354.61
2019-01-02T20:08:42.060Z,103350.19
2019-01-02T20:11:11.958Z,103355.76
2019-01-02T20:13:41.732Z,103351.34
2019-01-02T20:16:12.008Z,103344.77
2019-01-02T20:18:42.027Z,103356.08
2019-01-02T20:21:11.949Z,103350.38
2019-01-02T20:23:42.028Z,103351.16
2019-01-02T20:26:11.947Z,103350.67
2019-01-02T20:28:41.781Z,103343.23
2019-01-02T20:31:11.729Z,103337.09
2019-01-02T20:33:41.516Z,103334.41
2019-01-02T20:36:11.419Z,103335.68
2019-01-02T20:38:41.538Z,103329.09
2019-01-02T20:41:11.472Z,103333.41
2019-01-02T20:43:41.330Z,103339.41
2019-01-02T20:46:11.233Z,103335.02
2019-01-02T20:48:41.806Z,103339.33
2019-01-02T20:51:12.982Z,103340.17
2019-01-02T20:53:43.122Z,103337.09
2019-01-02T20:56:13.196Z,103329.20
2019-01-02T20:58:43.069Z,103328.68
2019-01-02T21:01:13.225Z,103328.61
2019-01-02T21:03:42.994Z,103326.00
2019-01-02T21:06:13.118Z,103326.48
2019-01-02T21:08:43.291Z,103325.16
2019-01-02T21:11:13.391Z,103328.16
2019-01-02T21:13:44.653Z,103318.95
2019-01-02T21:16:14.868Z,103323.73
2019-01-02T21:18:45.015Z,103320.74
2019-01-02T21:21:15.380Z,103322.14
2019-01-02T21:23:45.738Z,103324.41
2019-01-02T21:26:15.902Z,103324.45
2019-01-02T21:28:45.779Z,103330.59
2019-01-02T21:31:15.683Z,103330.64
2019-01-02T21:33:45.802Z,103327.62
2019-01-02T21:36:15.595Z,103320.33
2019-01-02T21:38:45.819Z,103318.67
2019-01-02T21:41:16.061Z,103320.53
2019-01-02T21:43:46.289Z,103309.73
2019-01-02T21:46:16.163Z,103312.90
2019-01-02T21:48:45.986Z,103308.16
2019-01-02T21:51:15.997Z,103313.39
2019-01-02T21:53:46.128Z,103308.59
2019-01-02T21:56:16.364Z,103314.23
2019-01-02T21:58:46.639Z,103312.51
2019-01-02T22:01:16.567Z,103308.20
2019-01-02T22:03:46.745Z,103312.56
2019-01-02T22:06:16.945Z,103314.31
2019-01-02T22:08:47.066Z,103306.95
2019-01-02T22:11:16.860Z,103312.28
2019-01-02T22:13:46.716Z,103313.64
2019-01-02T22:16:16.626Z,103319.33
2019-01-02T22:18:46.478Z,103310.28
2019-01-02T22:21:16.697Z,103310.77
2019-01-02T22:23:46.633Z,103312.13
2019-01-02T22:26:16.523Z,103317.86
2019-01-02T22:28:46.476Z,103320.09
2019-01-02T22:31:16.722Z,103322.75
2019-01-02T22:33:46.590Z,103327.55
2019-01-02T22:36:16.552Z,103326.70
2019-01-02T22:38:46.756Z,103325.02
2019-01-02T22:41:16.873Z,103325.03
2019-01-02T22:43:46.731Z,103330.28
2019-01-02T22:46:16.503Z,103336.50
2019-01-02T22:48:46.709Z,103332.22
2019-01-02T22:51:16.577Z,103337.97
2019-01-02T22:53:46.752Z,103336.28
2019-01-02T22:56:16.858Z,103331.13
2019-01-02T22:58:47.114Z,103335.11
2019-01-02T23:01:39.279Z,103335.13
2019-01-02T23:04:21.282Z,103339.52
2019-01-02T23:07:10.856Z,103344.73
2019-01-02T23:10:02.739Z,103341.25
2019-01-02T23:12:50.417Z,103354.32
2019-01-02T23:15:45.316Z,103351.75
2019-01-02T23:18:32.968Z,103355.27
2019-01-02T23:21:27.949Z,103359.63
2019-01-02T23:24:19.894Z,103358.76
2019-01-02T23:27:07.335Z,103355.70
2019-01-02T23:29:55.160Z,103347.44
2019-01-02T23:32:46.820Z,103358.75
2019-01-02T23:35:43.634Z,103356.06
2019-01-02T23:38:29.089Z,103345.59
2019-01-02T23:41:28.749Z,103351.71
2019-01-02T23:44:29.797Z,103356.11
2019-01-02T23:47:25.560Z,103361.25
2019-01-02T23:50:23.324Z,103362.95
2019-01-02T23:53:08.923Z,103362.84
2019-01-02T23:56:10.096Z,103365.84
2019-01-02T23:58:59.171Z,103372.36
